TNCM

Details ICAO TNCM (SXM)
Name Princess Juliana Intl
Region Caribbean Netherlands, Aruba, Curaçao, Sint Maarten
Timezone Unknown
Plans Departing 8386
Arriving 11829
Stats Elevation 14 ft / 4 m (AMSL)
Location 18.040900° -63.108900°
Runways 1
Magnetic Variation 14.434° W
Sunrise 2021-12-05 10:31:40 UTC / 2021-12-05 10:31:40 Local
Sunset 2021-12-05 21:37:34 UTC / 2021-12-05 21:37:34 Local
Advertisement - Login to hide

Runways

ID Width Length Bearing (true/mag) Surface Threshold Overrun Markings Lighting
10 148 ft / 45 m 7,553 ft / 2,302 m 81.44° / 95.87° ASPHALT 331 ft / 101 m 164 ft / 50 m PREC-APP EDGE THRESHOLD REIL-OMNI
28 148 ft / 45 m 7,553 ft / 2,302 m 261.45° / 275.88° ASPHALT 0 ft / 0 m 200 ft / 61 m APP EDGE THRESHOLD

Map

Weather


0- 5 10 15 20 25 30 35+ Temperature / °C

Clouds and Precipitation
Forecast for 2021-12-05 12:00 UTC. Updated 5 hours ago

Ground ~20,000 ft ~40,000 ft Winds

METAR

TNCM 051400Z 07010KT 040V100 9999 FEW018 29/23 Q1020 NOSIG

TAF

TAF TNCM 051132Z 0512/0612 09015KT P6SM VCSH SCT018 SCT035

Frequencies

Approach 128.95 MHz Juliana Approach
Recorded 127.65 MHz ATIS
Departure 128.95 MHz Juliana Departure
Tower 118.70 MHz Juliana Tower
Warning: Do not use this data for real-world aviation or navigation. No guarantee of current accuracy is given.